createdAt,value
2023-09-04T00:01:58.030Z,97961.53
2023-09-04T00:04:24.353Z,97962.97
2023-09-04T00:06:50.720Z,97970.34
2023-09-04T00:09:17.023Z,97962.34
2023-09-04T00:11:43.448Z,97957.81
2023-09-04T00:14:09.798Z,97961.13
2023-09-04T00:16:36.116Z,97958.03
2023-09-04T00:19:02.482Z,97964.22
2023-09-04T00:21:28.825Z,97966.47
2023-09-04T00:23:55.222Z,97966.69
2023-09-04T00:26:21.503Z,97965.25
2023-09-04T00:28:47.983Z,97964.22
2023-09-04T00:31:14.319Z,97968.34
2023-09-04T00:33:40.650Z,97975.94
2023-09-04T00:36:06.983Z,97972.66
2023-09-04T00:38:33.267Z,97971.44
2023-09-04T00:40:59.577Z,97956.59
2023-09-04T00:43:25.923Z,97956.81
2023-09-04T00:45:52.276Z,97962.16
2023-09-04T00:48:18.634Z,97964.22
2023-09-04T00:50:45.005Z,97969.59
2023-09-04T00:53:11.313Z,97972.25
2023-09-04T00:55:37.718Z,97962.78
2023-09-04T00:58:04.179Z,97966.06
2023-09-04T01:00:30.496Z,97964.81
2023-09-04T01:02:56.882Z,97961.34
2023-09-04T01:05:23.306Z,97964.41
2023-09-04T01:07:49.581Z,97959.28
2023-09-04T01:10:15.953Z,97952.06
2023-09-04T01:12:42.416Z,97956.19
2023-09-04T01:15:08.757Z,97953.28
2023-09-04T01:17:35.220Z,97950.63
2023-09-04T01:20:01.639Z,97949.16
2023-09-04T01:22:27.980Z,97950.63
2023-09-04T01:24:54.295Z,97947.72
2023-09-04T01:27:20.942Z,97954.13
2023-09-04T01:29:47.256Z,97949.81
2023-09-04T01:32:14.547Z,97943.41
2023-09-04T01:34:40.917Z,97946.69
2023-09-04T01:37:07.245Z,97950.00
2023-09-04T01:39:33.600Z,97953.09
2023-09-04T01:42:00.110Z,97948.56
2023-09-04T01:44:26.446Z,97945.06
2023-09-04T01:46:52.782Z,97944.63
2023-09-04T01:49:19.195Z,97951.66
2023-09-04T01:51:45.496Z,97945.69
2023-09-04T01:54:11.837Z,97937.63
2023-09-04T01:56:38.184Z,97942.16
2023-09-04T01:59:04.572Z,97939.91
2023-09-04T02:01:30.953Z,97939.06
2023-09-04T02:03:57.541Z,97939.91
2023-09-04T02:06:23.882Z,97948.56
2023-09-04T02:08:50.206Z,97933.72
2023-09-04T02:11:17.641Z,97931.88
2023-09-04T02:13:43.953Z,97932.09
2023-09-04T02:16:10.346Z,97936.81
2023-09-04T02:18:36.759Z,97928.16
2023-09-04T02:21:03.089Z,97924.66
2023-09-04T02:23:29.383Z,97917.22
2023-09-04T02:25:55.951Z,97919.31
2023-09-04T02:28:22.544Z,97913.97
2023-09-04T02:30:49.191Z,97909.84
2023-09-04T02:33:15.640Z,97918.69
2023-09-04T02:35:42.010Z,97914.34
2023-09-04T02:38:08.313Z,97912.50
2023-09-04T02:40:34.713Z,97905.09
2023-09-04T02:43:01.055Z,97907.56
2023-09-04T02:45:28.858Z,97909.44
2023-09-04T02:47:55.648Z,97917.47
2023-09-04T02:50:22.041Z,97909.81
2023-09-04T02:52:48.375Z,97902.19
2023-09-04T02:55:14.792Z,97903.25
2023-09-04T02:57:41.087Z,97903.63
2023-09-04T03:00:07.431Z,97900.72
2023-09-04T03:02:34.235Z,97904.88
2023-09-04T03:05:00.657Z,97905.50
2023-09-04T03:07:26.978Z,97910.44
2023-09-04T03:09:53.468Z,97900.81
2023-09-04T03:12:19.812Z,97908.19
2023-09-04T03:14:46.114Z,97911.91
2023-09-04T03:17:12.437Z,97906.75
2023-09-04T03:19:38.793Z,97910.06
2023-09-04T03:22:05.102Z,97906.53
2023-09-04T03:24:31.496Z,97913.97
2023-09-04T03:26:57.834Z,97908.34
2023-09-04T03:29:24.134Z,97904.66
2023-09-04T03:31:51.132Z,97901.00
2023-09-04T03:34:17.597Z,97900.34
2023-09-04T03:36:43.928Z,97896.63
2023-09-04T03:39:10.324Z,97898.50
2023-09-04T03:41:36.664Z,97898.50
2023-09-04T03:44:02.987Z,97899.16
2023-09-04T03:46:29.435Z,97894.63
2023-09-04T03:48:55.872Z,97892.91
2023-09-04T03:51:22.194Z,97896.44
2023-09-04T03:53:48.642Z,97896.25
2023-09-04T03:56:15.004Z,97896.06
2023-09-04T03:58:41.321Z,97904.50
2023-09-04T04:01:07.739Z,97902.03
2023-09-04T04:03:34.246Z,97914.81
2023-09-04T04:06:00.818Z,97905.31
2023-09-04T04:08:27.161Z,97911.09
2023-09-04T04:10:53.474Z,97912.31
2023-09-04T04:13:39.764Z,97907.75
2023-09-04T04:16:26.130Z,97907.75
2023-09-04T04:18:52.526Z,97898.13
2023-09-04T04:21:18.853Z,97912.69
2023-09-04T04:23:47.053Z,97904.66
2023-09-04T04:26:13.811Z,97903.69
2023-09-04T04:28:40.142Z,97906.16
2023-09-04T04:31:06.413Z,97902.03
2023-09-04T04:33:32.773Z,97906.34
2023-09-04T04:35:59.119Z,97899.94
2023-09-04T04:38:25.989Z,97902.59
2023-09-04T04:40:52.689Z,97904.06
2023-09-04T04:43:19.062Z,97909.84
2023-09-04T04:45:45.391Z,97922.44
2023-09-04T04:48:11.791Z,97923.41
2023-09-04T04:50:38.169Z,97919.09
2023-09-04T04:53:04.466Z,97924.47
2023-09-04T04:55:30.787Z,97924.03
2023-09-04T04:57:57.805Z,97925.50
2023-09-04T05:00:24.096Z,97921.78
2023-09-04T05:02:50.574Z,97928.97
2023-09-04T05:05:16.898Z,97927.09
2023-09-04T05:07:43.216Z,97929.81
2023-09-04T05:10:09.613Z,97929.59
2023-09-04T05:12:35.966Z,97927.56
2023-09-04T05:15:02.254Z,97930.44
2023-09-04T05:17:28.592Z,97936.19
2023-09-04T05:19:54.916Z,97936.22
2023-09-04T05:22:21.198Z,97934.97
2023-09-04T05:24:48.014Z,97938.69
2023-09-04T05:27:14.349Z,97934.34
2023-09-04T05:29:40.658Z,97941.97
2023-09-04T05:32:07.009Z,97934.97
2023-09-04T05:34:38.156Z,97943.19
2023-09-04T05:37:04.460Z,97943.00
2023-09-04T05:39:30.771Z,97935.38
2023-09-04T05:41:57.150Z,97947.09
2023-09-04T05:44:23.471Z,97936.22
2023-09-04T05:46:50.120Z,97938.69
2023-09-04T05:49:17.684Z,97942.56
2023-09-04T05:51:43.969Z,97944.00
2023-09-04T05:54:10.344Z,97948.94
2023-09-04T05:56:36.714Z,97957.84
2023-09-04T05:59:03.047Z,97954.56
2023-09-04T06:01:29.399Z,97956.19
2023-09-04T06:03:55.889Z,97953.94
2023-09-04T06:06:22.252Z,97955.97
2023-09-04T06:08:48.741Z,97955.38
2023-09-04T06:11:15.133Z,97965.06
2023-09-04T06:13:41.538Z,97960.50
2023-09-04T06:16:08.103Z,97955.16
2023-09-04T06:18:34.469Z,97961.34
2023-09-04T06:21:00.859Z,97961.75
2023-09-04T06:23:27.240Z,97966.50
2023-09-04T06:25:53.553Z,97966.91
2023-09-04T06:28:19.963Z,97971.22
2023-09-04T06:30:46.485Z,97962.56
2023-09-04T06:33:13.114Z,97963.00
2023-09-04T06:35:39.454Z,97972.03
2023-09-04T06:38:05.840Z,97974.94
2023-09-04T06:40:32.184Z,97978.63
2023-09-04T06:42:58.511Z,97981.31
2023-09-04T06:45:25.052Z,97977.41
2023-09-04T06:47:51.464Z,97978.22
2023-09-04T06:50:17.818Z,97982.97
2023-09-04T06:52:44.182Z,97984.59
2023-09-04T06:55:10.520Z,97974.94
2023-09-04T06:57:36.818Z,97982.97
2023-09-04T07:00:03.207Z,97982.56
2023-09-04T07:02:29.585Z,97975.34
2023-09-04T07:04:55.962Z,97983.34
2023-09-04T07:07:22.381Z,97987.72
2023-09-04T07:09:48.815Z,97992.00
2023-09-04T07:12:15.114Z,97985.00
2023-09-04T07:14:41.642Z,97986.88
2023-09-04T07:17:09.400Z,97987.28
2023-09-04T07:19:36.576Z,97992.84
2023-09-04T07:22:02.955Z,97988.31
2023-09-04T07:24:29.458Z,97989.75
2023-09-04T07:26:55.815Z,97983.59
2023-09-04T07:29:22.339Z,97990.81
2023-09-04T07:31:48.780Z,97985.66
2023-09-04T07:34:15.188Z,97986.47
2023-09-04T07:36:41.605Z,97996.78
2023-09-04T07:39:07.943Z,97992.88
2023-09-04T07:41:34.295Z,97996.78
2023-09-04T07:44:00.790Z,97995.94
2023-09-04T07:46:27.104Z,97992.63
2023-09-04T07:48:53.614Z,97999.47
2023-09-04T07:51:33.068Z,97995.94
2023-09-04T07:54:01.521Z,98002.53
2023-09-04T07:56:28.640Z,98001.13
2023-09-04T07:58:55.147Z,98006.06
2023-09-04T08:01:21.557Z,98008.72
2023-09-04T08:03:48.007Z,98005.84
2023-09-04T08:06:14.413Z,98000.88
2023-09-04T08:08:40.768Z,98001.72
2023-09-04T08:11:07.165Z,98002.53
2023-09-04T08:13:33.492Z,98006.44
2023-09-04T08:15:59.850Z,98009.75
2023-09-04T08:18:26.226Z,98006.44
2023-09-04T08:20:52.639Z,97997.13
2023-09-04T08:23:19.123Z,98003.31
2023-09-04T08:25:45.454Z,97994.69
2023-09-04T08:28:11.807Z,98004.59
2023-09-04T08:30:38.223Z,98001.28
2023-09-04T08:33:06.022Z,97995.09
2023-09-04T08:35:32.420Z,97999.00
2023-09-04T08:37:59.026Z,98000.03
2023-09-04T08:40:25.472Z,97997.56
2023-09-04T08:42:51.847Z,97994.66
2023-09-04T08:45:18.315Z,97989.91
2023-09-04T08:47:45.026Z,97992.97
2023-09-04T08:50:11.424Z,98000.44
2023-09-04T08:52:37.923Z,98006.78
2023-09-04T08:55:04.324Z,98007.00
2023-09-04T08:57:30.695Z,98006.78
2023-09-04T08:59:57.074Z,98013.56
2023-09-04T09:02:23.599Z,98009.84
2023-09-04T09:04:49.960Z,98009.84
2023-09-04T09:07:16.414Z,98007.00
2023-09-04T09:09:42.771Z,98000.75
2023-09-04T09:12:09.135Z,98011.94
2023-09-04T09:14:35.501Z,98014.59
2023-09-04T09:17:01.887Z,98012.53
2023-09-04T09:19:28.208Z,98011.09
2023-09-04T09:21:54.545Z,98012.75
2023-09-04T09:24:21.220Z,98007.31
2023-09-04T09:26:47.700Z,98006.06
2023-09-04T09:29:14.158Z,98003.41
2023-09-04T09:31:40.695Z,98006.47
2023-09-04T09:34:07.123Z,98000.06
2023-09-04T09:36:33.548Z,97994.31
2023-09-04T09:39:00.051Z,97995.72
2023-09-04T09:41:26.425Z,97993.66
2023-09-04T09:43:52.778Z,97991.81
2023-09-04T09:46:19.261Z,97983.34
2023-09-04T09:48:45.641Z,97987.44
2023-09-04T09:51:11.982Z,97984.56
2023-09-04T09:53:38.388Z,97982.44
2023-09-04T09:56:04.827Z,97973.41
2023-09-04T09:58:31.201Z,97974.88
2023-09-04T10:00:57.717Z,97973.41
2023-09-04T10:03:24.069Z,97964.78
2023-09-04T10:05:50.412Z,97961.88
2023-09-04T10:08:16.944Z,97963.94
2023-09-04T10:10:43.289Z,97955.28
2023-09-04T10:13:09.633Z,97945.81
2023-09-04T10:15:36.072Z,97954.84
2023-09-04T10:18:02.451Z,97946.22
2023-09-04T10:20:28.805Z,97946.00
2023-09-04T10:22:55.158Z,97939.19
2023-09-04T10:25:21.494Z,97930.91
2023-09-04T10:27:47.916Z,97925.75
2023-09-04T10:30:16.682Z,97922.06
2023-09-04T10:32:43.031Z,97921.44
2023-09-04T10:35:09.394Z,97917.72
2023-09-04T10:37:35.750Z,97917.47
2023-09-04T10:40:03.243Z,97917.88
2023-09-04T10:42:29.789Z,97910.06
2023-09-04T10:44:56.118Z,97915.66
2023-09-04T10:47:22.444Z,97911.94
2023-09-04T10:49:49.873Z,97906.13
2023-09-04T10:52:16.228Z,97908.16
2023-09-04T10:54:42.567Z,97894.97
2023-09-04T10:57:08.981Z,97901.56
2023-09-04T10:59:37.956Z,97903.19
2023-09-04T11:02:04.457Z,97901.72
2023-09-04T11:04:30.826Z,97892.03
2023-09-04T11:06:57.246Z,97888.09
2023-09-04T11:09:23.613Z,97891.16
2023-09-04T11:11:50.158Z,97889.06
2023-09-04T11:14:16.566Z,97893.63
2023-09-04T11:16:42.996Z,97894.84
2023-09-04T11:21:37.693Z,97884.66
2023-09-04T11:24:04.145Z,97886.13
2023-09-04T11:26:30.571Z,97887.13
2023-09-04T11:28:57.131Z,97886.31
2023-09-04T11:31:23.615Z,97885.53
2023-09-04T11:33:50.339Z,97878.69
2023-09-04T11:36:19.160Z,97879.94
2023-09-04T11:38:45.478Z,97886.97
2023-09-04T11:41:11.877Z,97884.28
2023-09-04T11:43:39.543Z,97877.44
2023-09-04T11:46:06.047Z,97884.06
2023-09-04T11:48:32.428Z,97877.00
2023-09-04T11:50:58.833Z,97872.72
2023-09-04T11:53:25.722Z,97871.22
2023-09-04T11:55:52.710Z,97866.25
2023-09-04T11:58:19.123Z,97867.09
2023-09-04T12:00:45.489Z,97859.03
2023-09-04T12:03:12.159Z,97855.72
2023-09-04T12:59:21.343Z,97790.13
2023-09-04T13:01:47.875Z,97785.19
2023-09-04T13:04:14.295Z,97778.28
2023-09-04T13:06:41.515Z,97784.75
2023-09-04T13:09:07.881Z,97781.06
2023-09-04T13:11:34.261Z,97773.28
2023-09-04T13:14:03.081Z,97772.88
2023-09-04T13:16:29.494Z,97772.09
2023-09-04T13:18:55.871Z,97774.31
2023-09-04T13:21:22.440Z,97765.22
2023-09-04T13:23:48.829Z,97755.38
2023-09-04T13:26:15.278Z,97757.59
2023-09-04T13:28:41.700Z,97752.63
2023-09-04T13:31:09.610Z,97752.25
2023-09-04T13:33:36.101Z,97747.31
2023-09-04T13:36:03.636Z,97740.44
2023-09-04T13:38:30.131Z,97742.34
2023-09-04T13:40:56.424Z,97735.09
2023-09-04T13:43:23.268Z,97732.88
2023-09-04T13:45:49.886Z,97726.72
2023-09-04T13:48:16.267Z,97724.22
2023-09-04T13:50:42.769Z,97722.34
2023-09-04T13:53:09.125Z,97725.94
2023-09-04T13:55:35.493Z,97721.75
2023-09-04T13:58:02.008Z,97720.03
2023-09-04T14:00:28.372Z,97717.78
2023-09-04T14:02:54.922Z,97702.72
2023-09-04T14:05:23.804Z,97700.19
2023-09-04T14:07:52.605Z,97698.56
2023-09-04T14:10:19.080Z,97690.72
2023-09-04T14:12:45.503Z,97696.47
2023-09-04T14:15:11.954Z,97694.38
2023-09-04T14:17:38.398Z,97681.63
2023-09-04T14:20:06.058Z,97686.19
2023-09-04T14:22:32.441Z,97688.19
2023-09-04T14:24:58.792Z,97685.00
2023-09-04T14:27:25.188Z,97679.19
2023-09-04T14:29:51.761Z,97673.34
2023-09-04T14:32:18.089Z,97670.66
2023-09-04T14:34:44.537Z,97668.06
2023-09-04T14:39:40.147Z,97667.97
2023-09-04T14:42:06.630Z,97664.50
2023-09-04T14:44:32.992Z,97663.44
2023-09-04T14:46:59.363Z,97661.72
2023-09-04T14:49:25.727Z,97648.16
2023-09-04T14:51:52.093Z,97657.09
2023-09-04T14:54:19.503Z,97651.81
2023-09-04T14:56:45.889Z,97652.47
2023-09-04T14:59:12.240Z,97650.69
2023-09-04T15:01:38.578Z,97643.13
2023-09-04T15:04:05.452Z,97644.88
2023-09-04T15:06:32.069Z,97645.03
2023-09-04T15:08:58.489Z,97636.81
2023-09-04T15:11:26.224Z,97636.75
2023-09-04T15:13:55.019Z,97635.25
2023-09-04T15:16:21.341Z,97637.72
2023-09-04T15:18:48.749Z,97630.88
2023-09-04T15:21:15.071Z,97630.38
2023-09-04T15:23:41.433Z,97633.91
2023-09-04T15:26:07.941Z,97629.22
2023-09-04T15:28:34.269Z,97628.31
2023-09-04T15:31:00.664Z,97625.03
2023-09-04T15:33:27.422Z,97622.94
2023-09-04T15:35:54.070Z,97622.94
2023-09-04T15:38:20.536Z,97620.72
2023-09-04T15:40:47.437Z,97617.44
2023-09-04T15:43:13.756Z,97619.75
2023-09-04T15:45:40.094Z,97612.53
2023-09-04T15:48:06.585Z,97609.97
2023-09-04T15:50:33.137Z,97609.41
2023-09-04T15:52:59.413Z,97602.53
2023-09-04T15:55:25.902Z,97596.94
2023-09-04T15:57:52.298Z,97600.63
2023-09-04T16:00:18.591Z,97595.81
2023-09-04T16:02:44.977Z,97594.03
2023-09-04T16:05:11.453Z,97590.28
2023-09-04T16:07:37.757Z,97596.09
2023-09-04T16:10:04.295Z,97596.81
2023-09-04T16:12:30.619Z,97595.19
2023-09-04T16:14:56.947Z,97591.91
2023-09-04T16:17:23.278Z,97585.88
2023-09-04T16:19:49.607Z,97585.38
2023-09-04T16:22:15.904Z,97586.25
2023-09-04T16:24:42.284Z,97584.84
2023-09-04T16:27:08.607Z,97585.81
2023-09-04T16:29:34.932Z,97588.28
2023-09-04T16:32:01.282Z,97582.41
2023-09-04T16:34:27.639Z,97577.09
2023-09-04T16:36:53.898Z,97579.09
2023-09-04T16:39:20.216Z,97573.00
2023-09-04T16:41:46.636Z,97570.59
2023-09-04T16:44:12.970Z,97569.34
2023-09-04T16:46:39.325Z,97567.69
2023-09-04T16:49:05.865Z,97567.03
2023-09-04T16:51:39.373Z,97569.25
2023-09-04T16:54:12.953Z,97571.50
2023-09-04T16:56:39.257Z,97560.09
2023-09-04T16:59:07.207Z,97551.81
2023-09-04T17:01:34.237Z,97560.78
2023-09-04T17:04:00.643Z,97551.47
2023-09-04T17:06:26.938Z,97553.19
2023-09-04T17:08:53.316Z,97556.53
2023-09-04T17:11:19.616Z,97559.38
2023-09-04T17:13:45.983Z,97551.69
2023-09-04T17:16:12.358Z,97553.59
2023-09-04T17:18:38.670Z,97558.53
2023-09-04T17:21:04.971Z,97554.66
2023-09-04T17:23:31.366Z,97557.41
2023-09-04T17:25:57.740Z,97556.09
2023-09-04T17:28:24.462Z,97558.72
2023-09-04T17:30:51.335Z,97563.19
2023-09-04T17:33:17.652Z,97558.41
2023-09-04T17:35:44.032Z,97562.22
2023-09-04T17:38:10.434Z,97564.97
2023-09-04T17:40:36.719Z,97562.50
2023-09-04T17:43:03.060Z,97561.41
2023-09-04T17:45:29.528Z,97559.44
2023-09-04T17:47:55.995Z,97558.13
2023-09-04T17:50:22.404Z,97556.84
2023-09-04T17:52:48.743Z,97564.06
2023-09-04T17:55:15.063Z,97552.66
2023-09-04T17:57:41.358Z,97555.13
2023-09-04T18:00:07.764Z,97556.09
2023-09-04T18:02:34.166Z,97546.41
2023-09-04T18:05:00.566Z,97551.78
2023-09-04T18:07:26.906Z,97546.41
2023-09-04T18:09:53.212Z,97553.06
2023-09-04T18:12:19.603Z,97551.63
2023-09-04T18:14:46.138Z,97557.59
2023-09-04T18:17:12.617Z,97553.28
2023-09-04T18:19:38.886Z,97545.72
2023-09-04T18:22:06.409Z,97547.97
2023-09-04T18:24:32.926Z,97551.31
2023-09-04T18:26:59.226Z,97555.28
2023-09-04T18:29:25.604Z,97552.38
2023-09-04T18:31:51.934Z,97559.66
2023-09-04T18:34:18.227Z,97553.63
2023-09-04T18:36:44.595Z,97563.78
2023-09-04T18:39:10.932Z,97565.41
2023-09-04T18:41:37.225Z,97561.91
2023-09-04T18:44:03.598Z,97565.50
2023-09-04T18:46:29.980Z,97560.03
2023-09-04T18:48:56.443Z,97559.16
2023-09-04T18:51:22.811Z,97561.25
2023-09-04T18:53:49.109Z,97563.91
2023-09-04T18:56:15.402Z,97573.91
2023-09-04T18:58:41.763Z,97571.97
2023-09-04T19:01:08.108Z,97578.00
2023-09-04T19:03:34.449Z,97576.97
2023-09-04T19:06:01.062Z,97577.25
2023-09-04T19:08:27.563Z,97583.13
2023-09-04T19:10:54.194Z,97577.72
2023-09-04T19:13:20.607Z,97584.81
2023-09-04T19:15:46.983Z,97585.97
2023-09-04T19:18:13.288Z,97581.97
2023-09-04T19:20:39.893Z,97582.41
2023-09-04T19:23:06.205Z,97582.50
2023-09-04T19:25:32.469Z,97583.91
2023-09-04T19:27:58.990Z,97583.47
2023-09-04T19:30:25.319Z,97590.84
2023-09-04T19:32:51.693Z,97589.94
2023-09-04T19:35:18.204Z,97594.72
2023-09-04T19:37:44.530Z,97585.53
2023-09-04T19:40:10.828Z,97595.16
2023-09-04T19:42:37.207Z,97594.63
2023-09-04T19:45:03.552Z,97590.75
2023-09-04T19:47:29.923Z,97588.47
2023-09-04T19:49:56.502Z,97597.31
2023-09-04T19:52:22.990Z,97587.16
2023-09-04T19:54:49.291Z,97588.66
2023-09-04T19:57:15.675Z,97591.56
2023-09-04T19:59:41.955Z,97587.94
2023-09-04T20:02:09.669Z,97592.13
2023-09-04T20:04:36.276Z,97597.31
2023-09-04T20:07:02.611Z,97591.84
2023-09-04T20:09:29.231Z,97590.59
2023-09-04T20:11:55.580Z,97589.28
2023-09-04T20:14:21.868Z,97590.56
2023-09-04T20:16:48.157Z,97583.59
2023-09-04T20:19:14.672Z,97587.81
2023-09-04T20:21:40.979Z,97585.03
2023-09-04T20:24:07.356Z,97592.25
2023-09-04T20:26:43.604Z,97593.16
2023-09-04T20:29:15.637Z,97595.31
2023-09-04T20:31:41.991Z,97599.25
2023-09-04T20:34:08.321Z,97594.41
2023-09-04T20:36:34.626Z,97594.19
2023-09-04T20:39:01.007Z,97598.00
2023-09-04T20:41:27.288Z,97594.91
2023-09-04T20:43:53.599Z,97586.22
2023-09-04T20:46:20.124Z,97596.38
2023-09-04T20:48:46.434Z,97590.75
2023-09-04T20:51:12.809Z,97594.78
2023-09-04T20:53:39.376Z,97597.72
2023-09-04T20:56:05.773Z,97595.97
2023-09-04T20:58:32.038Z,97598.28
2023-09-04T21:00:58.603Z,97600.47
2023-09-04T21:03:25.027Z,97595.88
2023-09-04T21:05:51.494Z,97595.81
2023-09-04T21:08:17.844Z,97595.22
2023-09-04T21:10:44.182Z,97594.56
2023-09-04T21:13:10.488Z,97592.94
2023-09-04T21:15:36.874Z,97590.22
2023-09-04T21:18:03.300Z,97594.31
2023-09-04T21:20:29.621Z,97580.22
2023-09-04T21:22:55.993Z,97586.88
2023-09-04T21:25:22.289Z,97589.56
2023-09-04T21:27:48.651Z,97586.13
2023-09-04T21:30:14.951Z,97596.72
2023-09-04T21:32:41.250Z,97587.25
2023-09-04T21:35:07.590Z,97589.41
2023-09-04T21:37:33.952Z,97585.41
2023-09-04T21:40:00.279Z,97580.75
2023-09-04T21:42:26.598Z,97579.38
2023-09-04T21:44:54.327Z,97573.84
2023-09-04T21:47:20.636Z,97581.50
2023-09-04T21:49:46.973Z,97576.91
2023-09-04T21:52:13.308Z,97575.84
2023-09-04T21:54:39.636Z,97580.47
2023-09-04T21:57:05.932Z,97569.72
2023-09-04T21:59:32.533Z,97579.50
2023-09-04T22:01:58.895Z,97569.25
2023-09-04T22:04:25.190Z,97570.47
2023-09-04T22:06:51.903Z,97568.16
2023-09-04T22:09:18.203Z,97576.16
2023-09-04T22:11:44.497Z,97568.88
2023-09-04T22:14:10.839Z,97573.03
2023-09-04T22:16:40.285Z,97562.91
2023-09-04T22:19:09.409Z,97574.22
2023-09-04T22:21:35.822Z,97566.03
2023-09-04T22:24:02.120Z,97565.13
2023-09-04T22:26:28.406Z,97566.31
2023-09-04T22:28:54.764Z,97563.44
2023-09-04T22:31:21.272Z,97566.75
2023-09-04T22:33:47.613Z,97567.03
2023-09-04T22:36:13.973Z,97561.84
2023-09-04T22:38:40.306Z,97565.06
2023-09-04T22:41:06.604Z,97557.50
2023-09-04T22:43:32.920Z,97562.28
2023-09-04T22:45:59.212Z,97563.56
2023-09-04T22:48:25.556Z,97567.06
2023-09-04T22:50:52.062Z,97570.13
2023-09-04T22:53:18.409Z,97570.50
2023-09-04T22:55:44.739Z,97575.94
2023-09-04T22:58:11.254Z,97572.03
2023-09-04T23:00:37.600Z,97572.84
2023-09-04T23:03:04.094Z,97569.38
2023-09-04T23:05:30.517Z,97565.28
2023-09-04T23:07:56.826Z,97564.91
2023-09-04T23:10:23.188Z,97564.47
2023-09-04T23:12:49.592Z,97571.91
2023-09-04T23:15:15.925Z,97561.41
2023-09-04T23:17:42.265Z,97557.81
2023-09-04T23:20:08.759Z,97569.19
2023-09-04T23:22:35.053Z,97575.66
2023-09-04T23:25:01.337Z,97572.41
2023-09-04T23:27:27.989Z,97572.78
2023-09-04T23:29:54.297Z,97576.25
2023-09-04T23:32:20.614Z,97574.69
2023-09-04T23:34:47.076Z,97574.59
2023-09-04T23:37:13.394Z,97575.47
2023-09-04T23:39:39.733Z,97576.75
2023-09-04T23:42:06.193Z,97578.03
2023-09-04T23:44:32.494Z,97583.72
2023-09-04T23:46:58.759Z,97587.88
2023-09-04T23:49:25.262Z,97575.53
2023-09-04T23:51:51.571Z,97584.97
2023-09-04T23:54:17.883Z,97583.81
2023-09-04T23:56:44.251Z,97587.94
2023-09-04T23:59:10.577Z,97589.88
